Seacod — DDPW — position and weather

sailwx.info

Track history (hours):
 
Tides and Currents Weather Stations Pressure Air Temp Water Temp Dewpoint Dewpoint Depression Visibility Wind Speed Wind Dir Waves Ship Positions

Seacod

Last reported at 2018-Feb-18 00:14 UTC. Time now 2018-Feb-18 05:15 UTC.
Position N 51°21' E 004°18'.

Length 188 m; draft 9.8 m.

Type: Tanker. MMSI: 218019000.

Date/timePositionNaut miles runAvg speedWind from/ knotsBaromVisibWave heightAir tempDewpointWater temp
2018-Feb-18 00:14N 51°21' E 004°18'0 0.0
2018-Feb-18 00:00N 51°21' E 004°18'1 1.2
2018-Feb-17 23:30N 51°21' E 004°17'0 0.0
2018-Feb-17 23:00N 51°21' E 004°17'0 0.0
2018-Feb-17 22:30N 51°21' E 004°17'0 0.0
2018-Feb-17 22:00N 51°21' E 004°17'0 0.8
2018-Feb-17 21:30N 51°21' E 004°16'2 4.7
2018-Feb-17 21:00N 51°22' E 004°13'3 5.4
2018-Feb-17 20:30N 51°23' E 004°09'4 8.9
2018-Feb-17 20:00N 51°23' E 004°02'3 6.0
2018-Feb-17 19:30N 51°25' E 003°58'5 9.9
2018-Feb-17 19:00N 51°21' E 003°53'5 9.5
2018-Feb-17 18:30N 51°22' E 003°45'5 9.2
2018-Feb-17 18:00N 51°26' E 003°41'4 9.0
2018-Feb-17 17:30N 51°26' E 003°34'4 7.0
2018-Feb-17 17:00N 51°25' E 003°29'612.6
2018-Feb-17 16:30N 51°24' E 003°19'713.6
2018-Feb-17 16:00N 51°24' E 003°08'611.9
2018-Feb-17 15:30N 51°27' E 002°59'612.2
2018-Feb-17 15:00N 51°31' E 003°05'612.1
2018-Feb-17 14:30N 51°37' E 003°10'612.2
2018-Feb-17 13:58N 51°43' E 003°13'4 8.7
2018-Feb-17 13:30N 51°45' E 003°08'1610.4
2018-Feb-17 11:55N 51°47' E 002°41'6910.8
2018-Feb-17 05:33N 52°53' E 003°14'211.5
2018-Feb-17 05:21N 52°55' E 003°15'411.1
2018-Feb-17 05:00N 52°58' E 003°18'611.2
2018-Feb-17 04:30N 53°04' E 003°21'37311.4
2018-Feb-15 19:37N 57°49' E 010°25'212.8
2018-Feb-15 19:27N 57°49' E 010°29'612.5
2018-Feb-15 19:00N 57°49' E 010°39'611.5
2018-Feb-15 18:31N 57°48' E 010°50'713.2
2018-Feb-15 18:00N 57°43' E 010°59'713.4
2018-Feb-15 17:30N 57°38' E 011°07'714.0
2018-Feb-15 17:00N 57°33' E 011°16'713.5
2018-Feb-15 16:30N 57°28' E 011°25'714.0
2018-Feb-15 16:00N 57°22' E 011°30'713.9
2018-Feb-15 15:30N 57°15' E 011°34'714.0
2018-Feb-15 15:00N 57°09' E 011°39'713.5
2018-Feb-15 14:30N 57°02' E 011°43'10412.0
2018-Feb-15 05:48N 55°21' E 011°02'713.7
2018-Feb-15 05:16N 55°14' E 011°06'312.5
2018-Feb-15 05:00N 55°11' E 011°04'612.2
2018-Feb-15 04:30N 55°05' E 010°59'713.6
2018-Feb-15 04:00N 54°59' E 010°58'713.0
2018-Feb-15 03:30N 54°53' E 010°51'713.3
2018-Feb-15 03:00N 54°47' E 010°49'612.4
2018-Feb-15 02:31N 54°41' E 010°47'612.6
2018-Feb-15 02:00N 54°38' E 010°56'612.1
2018-Feb-15 01:30N 54°37' E 011°06'612.9
2018-Feb-15 01:00N 54°34' E 011°17'613.0
2018-Feb-15 00:30N 54°31' E 011°27'612.6
2018-Feb-15 00:00N 54°29' E 011°37'612.5
2018-Feb-14 23:30N 54°26' E 011°46'612.5
2018-Feb-14 23:00N 54°26' E 011°57'2811.5
2018-Feb-14 20:34N 54°43' E 012°35'312.6
2018-Feb-14 20:19N 54°45' E 012°39'2712.5
2018-Feb-14 18:07N 54°55' E 013°23'2212.5
2018-Feb-14 16:24N 55°03' E 013°59'612.3
2018-Feb-14 15:54N 55°07' E 014°07'512.7
2018-Feb-14 15:29N 55°11' E 014°13'812.6
2018-Feb-14 14:49N 55°17' E 014°22'412.4
2018-Feb-14 14:30N 55°20' E 014°27'812.5
2018-Feb-14 13:53N 55°26' E 014°36'512.6
2018-Feb-14 13:28N 55°29' E 014°44'712.5
2018-Feb-14 12:53N 55°33' E 014°55'612.4
2018-Feb-14 12:24N 55°36' E 015°04'512.4
2018-Feb-14 12:00N 55°38' E 015°12'612.5
2018-Feb-14 11:30N 55°41' E 015°21'612.5
2018-Feb-14 11:00N 55°44' E 015°31'612.7
2018-Feb-14 10:30N 55°47' E 015°41'612.6
2018-Feb-14 10:00N 55°50' E 015°51'612.8
2018-Feb-14 09:30N 55°54' E 016°01'612.7
2018-Feb-14 09:00N 55°57' E 016°10'713.4
2018-Feb-14 08:31N 56°00' E 016°21'714.4
2018-Feb-14 08:00N 56°04' E 016°32'612.6
2018-Feb-14 07:30N 56°07' E 016°41'612.8
2018-Feb-14 07:00N 56°11' E 016°50'27812.6
2018-Feb-13 08:59N 59°33' E 022°50'613.0
2018-Feb-13 08:30N 59°35' E 023°02'612.7
2018-Feb-13 08:00N 59°37' E 023°14'612.9
2018-Feb-13 07:30N 59°38' E 023°26'712.9
2018-Feb-13 07:00N 59°40' E 023°38'612.5
2018-Feb-13 06:30N 59°42' E 023°50'713.0
2018-Feb-13 06:00N 59°44' E 024°03'814.1
2018-Feb-13 05:26N 59°46' E 024°18'613.8
2018-Feb-13 05:00N 59°47' E 024°29'713.7
2018-Feb-13 04:30N 59°49' E 024°42'713.9
2018-Feb-13 04:01N 59°50' E 024°56'713.5
2018-Feb-13 03:31N 59°52' E 025°09'713.4
2018-Feb-13 03:00N 59°53' E 025°23'713.6
2018-Feb-13 02:30N 59°54' E 025°36'1914.5
2018-Feb-13 01:12N 59°59' E 026°12'313.5
2018-Feb-13 00:58N 59°59' E 026°19'511.8
2018-Feb-13 00:30N 60°01' E 026°29'713.3
2018-Feb-13 00:01N 60°01' E 026°42'915.4
2018-Feb-12 23:27N 59°60' E 026°59'612.1
2018-Feb-12 22:58N 60°02' E 027°10'613.3
2018-Feb-12 22:30N 60°05' E 027°21'611.7
2018-Feb-12 21:59N 60°08' E 027°31'612.0
2018-Feb-12 21:30N 60°11' E 027°41'510.2
2018-Feb-12 21:00N 60°11' E 027°52'611.4
2018-Feb-12 20:31N 60°10' E 028°03'612.8
2018-Feb-12 20:00N 60°08' E 028°15'612.2
2018-Feb-12 19:30N 60°05' E 028°25'611.8
2018-Feb-12 19:00N 60°03' E 028°37'613.1
2018-Feb-12 18:30N 59°57' E 028°35'4 8.1
2018-Feb-12 18:00N 59°53' E 028°31'612.9
2018-Feb-12 17:31N 59°48' E 028°25'5 9.4
2018-Feb-12 17:01N 59°43' E 028°25'3 5.2
2018-Feb-12 16:30N 59°41' E 028°23'0 0.3
2018-Feb-12 15:58N 59°41' E 028°23'0 0.1
2018-Feb-12 15:16N 59°41' E 028°23'0 0.0
2018-Feb-12 14:49N 59°41' E 028°23'0 0.0
2018-Feb-12 14:22N 59°41' E 028°23'0 0.0
2018-Feb-12 13:52N 59°41' E 028°23'0 0.0
2018-Feb-12 13:22N 59°41' E 028°23'0 0.0
2018-Feb-12 12:52N 59°41' E 028°23'0 0.0
2018-Feb-12 12:22N 59°41' E 028°23'0 0.0
2018-Feb-12 11:52N 59°41' E 028°23'0 0.0
2018-Feb-12 11:25N 59°41' E 028°23'0 0.0
2018-Feb-12 10:55N 59°41' E 028°23'0 0.0
2018-Feb-12 10:25N 59°41' E 028°23'0 0.0
2018-Feb-12 09:55N 59°41' E 028°23'0 0.0
2018-Feb-12 09:25N 59°41' E 028°23'0 0.0
2018-Feb-12 08:55N 59°41' E 028°23'0 0.0
2018-Feb-12 08:28N 59°41' E 028°23'0 0.0
2018-Feb-12 08:00N 59°41' E 028°23'0 0.0
2018-Feb-12 07:30N 59°41' E 028°23'0 0.0
2018-Feb-12 07:00N 59°41' E 028°23'0 0.0
2018-Feb-12 06:11N 59°41' E 028°23'0 0.0
2018-Feb-12 05:56N 59°41' E 028°23'0 0.0
2018-Feb-12 05:26N 59°41' E 028°23'0 0.0
2018-Feb-12 04:55N 59°41' E 028°23'0 0.0
2018-Feb-12 04:25N 59°41' E 028°23'0 0.0
2018-Feb-12 03:54N 59°41' E 028°23'0 0.0
2018-Feb-12 03:24N 59°41' E 028°23'0 0.0
2018-Feb-12 02:54N 59°41' E 028°23'0 0.0
2018-Feb-12 02:24N 59°41' E 028°23'0 0.0
2018-Feb-12 01:57N 59°41' E 028°23'0 0.0
2018-Feb-12 01:23N 59°41' E 028°23'0 0.0
2018-Feb-12 00:53N 59°41' E 028°23'0 0.0
2018-Feb-12 00:26N 59°41' E 028°23'0 0.0
2018-Feb-11 23:56N 59°41' E 028°23'0 0.0
2018-Feb-11 23:26N 59°41' E 028°23'0 0.0
2018-Feb-11 22:53N 59°41' E 028°23'0 0.0
2018-Feb-11 22:26N 59°41' E 028°23'0 0.0
2018-Feb-11 21:56N 59°41' E 028°23'0 0.0
2018-Feb-11 21:29N 59°41' E 028°23'0 0.0
2018-Feb-11 20:59N 59°41' E 028°23'0 0.0
2018-Feb-11 20:26N 59°41' E 028°23'0 0.0
2018-Feb-11 19:56N 59°41' E 028°23'0 0.0
2018-Feb-11 19:29N 59°41' E 028°23'0 0.0
2018-Feb-11 18:59N 59°41' E 028°23'0 0.0
2018-Feb-11 18:29N 59°41' E 028°23'0 0.0
2018-Feb-11 17:59N 59°41' E 028°23'0 0.0
2018-Feb-11 17:29N 59°41' E 028°23'0 0.0
2018-Feb-11 16:59N 59°41' E 028°23'0 0.0
2018-Feb-11 16:29N 59°41' E 028°23'0 0.0
2018-Feb-11 15:59N 59°41' E 028°23'0 0.0
2018-Feb-11 15:29N 59°41' E 028°23'0 0.0
2018-Feb-11 14:53N 59°41' E 028°23'0 0.0
2018-Feb-11 14:29N 59°41' E 028°23'0 0.0
2018-Feb-11 13:59N 59°41' E 028°23'0 0.0
2018-Feb-11 13:29N 59°41' E 028°23'0 0.0
2018-Feb-11 12:59N 59°41' E 028°23'0 0.0
2018-Feb-11 12:22N 59°41' E 028°23'0 0.0
2018-Feb-11 11:52N 59°41' E 028°23'0 0.0
2018-Feb-11 11:25N 59°41' E 028°23'0 0.0
2018-Feb-11 10:55N 59°41' E 028°23'0 0.0
2018-Feb-11 10:25N 59°41' E 028°23'0 0.0
2018-Feb-11 09:55N 59°41' E 028°23'0 0.0
2018-Feb-11 09:25N 59°41' E 028°23'0 0.0
2018-Feb-11 08:52N 59°41' E 028°23'0 0.0
2018-Feb-11 08:28N 59°41' E 028°23'0 0.0
2018-Feb-11 07:58N 59°41' E 028°23'0 0.0
2018-Feb-11 07:28N 59°41' E 028°23'0 0.0
2018-Feb-11 07:00N 59°41' E 028°23'0 0.0
2018-Feb-11 06:30N 59°41' E 028°23'0 0.0
2018-Feb-11 06:00N 59°41' E 028°23'0 0.0
2018-Feb-11 05:26N 59°41' E 028°23'0 0.0
2018-Feb-11 05:00N 59°41' E 028°23'1 1.3
2018-Feb-11 04:30N 59°41' E 028°24'2 4.1
2018-Feb-11 04:01N 59°43' E 028°24'4 7.3
2018-Feb-11 03:30N 59°46' E 028°24'0 0.6
2018-Feb-11 03:01N 59°46' E 028°24'0 0.1
2018-Feb-11 02:26N 59°46' E 028°24'0 0.0
2018-Feb-11 01:56N 59°46' E 028°24'0 0.0
2018-Feb-11 01:28N 59°46' E 028°24'0 0.0
2018-Feb-11 00:55N 59°46' E 028°24'0 0.0
2018-Feb-11 00:28N 59°46' E 028°24'0 0.0
2018-Feb-10 23:58N 59°46' E 028°24'0 0.0
2018-Feb-10 23:28N 59°46' E 028°24'0 0.0
2018-Feb-10 22:58N 59°46' E 028°24'0 0.0
2018-Feb-10 22:26N 59°46' E 028°24'0 0.0
2018-Feb-10 21:56N 59°46' E 028°24'0 0.0
2018-Feb-10 21:19N 59°46' E 028°24'0 0.0
2018-Feb-10 20:54N 59°46' E 028°24'0 0.0
2018-Feb-10 20:29N 59°46' E 028°24'0 0.0
2018-Feb-10 19:52N 59°46' E 028°24'0 0.0
2018-Feb-10 19:22N 59°46' E 028°24'0 0.0
2018-Feb-10 18:52N 59°46' E 028°24'0 0.0
2018-Feb-10 18:22N 59°46' E 028°24'0 0.0
2018-Feb-10 17:55N 59°46' E 028°24'0 0.0
2018-Feb-10 17:25N 59°46' E 028°24'0 0.0
2018-Feb-10 16:55N 59°46' E 028°24'0 0.0
2018-Feb-10 16:25N 59°46' E 028°24'0 0.0
2018-Feb-10 15:55N 59°46' E 028°24'0 0.0
2018-Feb-10 15:22N 59°46' E 028°24'0 0.0
2018-Feb-10 14:58N 59°46' E 028°24'0 0.0
2018-Feb-10 14:25N 59°46' E 028°24'0 0.0
2018-Feb-10 13:59N 59°46' E 028°24'0 0.0
2018-Feb-10 13:29N 59°46' E 028°24'0 0.0
2018-Feb-10 12:53N 59°47' E 028°24'0 0.3
2018-Feb-10 12:29N 59°47' E 028°24'2 4.9
2018-Feb-10 12:01N 59°49' E 028°25'612.6
2018-Feb-10 11:30N 59°54' E 028°32'3 6.6
2018-Feb-10 11:00N 59°56' E 028°37'2 2.9
2018-Feb-10 10:29N 59°55' E 028°39'0 0.2
2018-Feb-10 09:59N 59°55' E 028°38'0 0.0
2018-Feb-10 09:29N 59°55' E 028°38'0 0.0
2018-Feb-10 08:59N 59°55' E 028°38'0 0.0
2018-Feb-10 08:29N 59°55' E 028°38'0 0.0
2018-Feb-10 07:59N 59°55' E 028°38'0 0.0
2018-Feb-10 07:26N 59°55' E 028°38'0 0.1
2018-Feb-10 06:58N 59°55' E 028°39'0 0.0
2018-Feb-10 06:28N 59°55' E 028°39'0 0.0
2018-Feb-10 05:56N 59°55' E 028°39'0 0.0
2018-Feb-10 05:22N 59°55' E 028°39'0 0.0
2018-Feb-10 04:54N 59°55' E 028°39'0 0.0
2018-Feb-10 04:27N 59°55' E 028°39'0 0.0
2018-Feb-10 03:57N 59°55' E 028°39'0 0.1
2018-Feb-10 03:27N 59°55' E 028°39'0 0.1
2018-Feb-10 03:00N 59°55' E 028°39'0 0.0
2018-Feb-10 02:30N 59°55' E 028°39'0 0.0
2018-Feb-10 02:00N 59°55' E 028°39'0 0.0
2018-Feb-10 01:30N 59°55' E 028°39'0 0.1
2018-Feb-10 01:00N 59°55' E 028°39'0 0.0
2018-Feb-10 00:30N 59°55' E 028°39'0 0.0
2018-Feb-09 23:44N 59°55' E 028°39'0 0.0
2018-Feb-09 23:28N 59°55' E 028°39'0 0.1
2018-Feb-09 22:57N 59°55' E 028°39'0 0.1
2018-Feb-09 22:41N 59°55' E 028°39'0 0.0
2018-Feb-09 18:30N 59°55' E 028°39'5 1.1
2018-Feb-09 13:30N 60°00' E 028°36'510.3
2018-Feb-09 13:00N 60°03' E 028°27'1711.5
2018-Feb-09 11:30N 60°10' E 027°55'611.4
2018-Feb-09 11:00N 60°10' E 027°43'612.4
2018-Feb-09 10:30N 60°07' E 027°33'612.8
2018-Feb-09 10:00N 60°03' E 027°22'1212.3
2018-Feb-09 09:00N 59°58' E 026°60'612.7
2018-Feb-09 08:30N 59°59' E 026°47'1313.0
2018-Feb-09 07:30N 59°57' E 026°21'4512.9
2018-Feb-09 04:00N 59°47' E 024°53'1312.5
2018-Feb-09 03:00N 59°44' E 024°29'1912.6
2018-Feb-09 01:30N 59°38' E 023°53'612.9
2018-Feb-09 01:00N 59°36' E 023°41'29812.7
2018-Feb-08 01:30N 56°09' E 016°59'613.0
2018-Feb-08 01:00N 56°05' E 016°49'713.1
2018-Feb-08 00:30N 56°01' E 016°40'  
Track history (hours):
 
Tides and Currents Weather Stations Pressure Air Temp Water Temp Dewpoint Dewpoint Depression Visibility Wind Speed Wind Dir Waves Ship Positions

Seacod

Last reported at 2018-Feb-18 00:14 UTC. Time now 2018-Feb-18 05:15 UTC.
Position N 51°21' E 004°18'.

Length 188 m; draft 9.8 m.

Type: Tanker. MMSI: 218019000.

Date/timePositionNaut miles runAvg speedWind from/ knotsBaromVisibWave heightAir tempDewpointWater temp
2018-Feb-18 00:14N 51°21' E 004°18'0 0.0
2018-Feb-18 00:00N 51°21' E 004°18'1 1.2
2018-Feb-17 23:30N 51°21' E 004°17'0 0.0
2018-Feb-17 23:00N 51°21' E 004°17'0 0.0
2018-Feb-17 22:30N 51°21' E 004°17'0 0.0
2018-Feb-17 22:00N 51°21' E 004°17'0 0.8
2018-Feb-17 21:30N 51°21' E 004°16'2 4.7
2018-Feb-17 21:00N 51°22' E 004°13'3 5.4
2018-Feb-17 20:30N 51°23' E 004°09'4 8.9
2018-Feb-17 20:00N 51°23' E 004°02'3 6.0
2018-Feb-17 19:30N 51°25' E 003°58'5 9.9
2018-Feb-17 19:00N 51°21' E 003°53'5 9.5
2018-Feb-17 18:30N 51°22' E 003°45'5 9.2
2018-Feb-17 18:00N 51°26' E 003°41'4 9.0
2018-Feb-17 17:30N 51°26' E 003°34'4 7.0
2018-Feb-17 17:00N 51°25' E 003°29'612.6
2018-Feb-17 16:30N 51°24' E 003°19'713.6
2018-Feb-17 16:00N 51°24' E 003°08'611.9
2018-Feb-17 15:30N 51°27' E 002°59'612.2
2018-Feb-17 15:00N 51°31' E 003°05'612.1
2018-Feb-17 14:30N 51°37' E 003°10'612.2
2018-Feb-17 13:58N 51°43' E 003°13'4 8.7
2018-Feb-17 13:30N 51°45' E 003°08'1610.4
2018-Feb-17 11:55N 51°47' E 002°41'6910.8
2018-Feb-17 05:33N 52°53' E 003°14'211.5
2018-Feb-17 05:21N 52°55' E 003°15'411.1
2018-Feb-17 05:00N 52°58' E 003°18'611.2
2018-Feb-17 04:30N 53°04' E 003°21'37311.4
2018-Feb-15 19:37N 57°49' E 010°25'212.8
2018-Feb-15 19:27N 57°49' E 010°29'612.5
2018-Feb-15 19:00N 57°49' E 010°39'611.5
2018-Feb-15 18:31N 57°48' E 010°50'713.2
2018-Feb-15 18:00N 57°43' E 010°59'713.4
2018-Feb-15 17:30N 57°38' E 011°07'714.0
2018-Feb-15 17:00N 57°33' E 011°16'713.5
2018-Feb-15 16:30N 57°28' E 011°25'714.0
2018-Feb-15 16:00N 57°22' E 011°30'713.9
2018-Feb-15 15:30N 57°15' E 011°34'714.0
2018-Feb-15 15:00N 57°09' E 011°39'713.5
2018-Feb-15 14:30N 57°02' E 011°43'10412.0
2018-Feb-15 05:48N 55°21' E 011°02'713.7
2018-Feb-15 05:16N 55°14' E 011°06'312.5
2018-Feb-15 05:00N 55°11' E 011°04'612.2
2018-Feb-15 04:30N 55°05' E 010°59'713.6
2018-Feb-15 04:00N 54°59' E 010°58'713.0
2018-Feb-15 03:30N 54°53' E 010°51'713.3
2018-Feb-15 03:00N 54°47' E 010°49'612.4
2018-Feb-15 02:31N 54°41' E 010°47'612.6
2018-Feb-15 02:00N 54°38' E 010°56'612.1
2018-Feb-15 01:30N 54°37' E 011°06'612.9
2018-Feb-15 01:00N 54°34' E 011°17'613.0
2018-Feb-15 00:30N 54°31' E 011°27'612.6
2018-Feb-15 00:00N 54°29' E 011°37'612.5
2018-Feb-14 23:30N 54°26' E 011°46'612.5
2018-Feb-14 23:00N 54°26' E 011°57'2811.5
2018-Feb-14 20:34N 54°43' E 012°35'312.6
2018-Feb-14 20:19N 54°45' E 012°39'2712.5
2018-Feb-14 18:07N 54°55' E 013°23'2212.5
2018-Feb-14 16:24N 55°03' E 013°59'612.3
2018-Feb-14 15:54N 55°07' E 014°07'512.7
2018-Feb-14 15:29N 55°11' E 014°13'812.6
2018-Feb-14 14:49N 55°17' E 014°22'412.4
2018-Feb-14 14:30N 55°20' E 014°27'812.5
2018-Feb-14 13:53N 55°26' E 014°36'512.6
2018-Feb-14 13:28N 55°29' E 014°44'712.5
2018-Feb-14 12:53N 55°33' E 014°55'612.4
2018-Feb-14 12:24N 55°36' E 015°04'512.4
2018-Feb-14 12:00N 55°38' E 015°12'612.5
2018-Feb-14 11:30N 55°41' E 015°21'612.5
2018-Feb-14 11:00N 55°44' E 015°31'612.7
2018-Feb-14 10:30N 55°47' E 015°41'612.6
2018-Feb-14 10:00N 55°50' E 015°51'612.8
2018-Feb-14 09:30N 55°54' E 016°01'612.7
2018-Feb-14 09:00N 55°57' E 016°10'713.4
2018-Feb-14 08:31N 56°00' E 016°21'714.4
2018-Feb-14 08:00N 56°04' E 016°32'612.6
2018-Feb-14 07:30N 56°07' E 016°41'612.8
2018-Feb-14 07:00N 56°11' E 016°50'27812.6
2018-Feb-13 08:59N 59°33' E 022°50'613.0
2018-Feb-13 08:30N 59°35' E 023°02'612.7
2018-Feb-13 08:00N 59°37' E 023°14'612.9
2018-Feb-13 07:30N 59°38' E 023°26'712.9
2018-Feb-13 07:00N 59°40' E 023°38'612.5
2018-Feb-13 06:30N 59°42' E 023°50'713.0
2018-Feb-13 06:00N 59°44' E 024°03'814.1
2018-Feb-13 05:26N 59°46' E 024°18'613.8
2018-Feb-13 05:00N 59°47' E 024°29'713.7
2018-Feb-13 04:30N 59°49' E 024°42'713.9
2018-Feb-13 04:01N 59°50' E 024°56'713.5
2018-Feb-13 03:31N 59°52' E 025°09'713.4
2018-Feb-13 03:00N 59°53' E 025°23'713.6
2018-Feb-13 02:30N 59°54' E 025°36'1914.5
2018-Feb-13 01:12N 59°59' E 026°12'313.5
2018-Feb-13 00:58N 59°59' E 026°19'511.8
2018-Feb-13 00:30N 60°01' E 026°29'713.3
2018-Feb-13 00:01N 60°01' E 026°42'915.4
2018-Feb-12 23:27N 59°60' E 026°59'612.1
2018-Feb-12 22:58N 60°02' E 027°10'613.3
2018-Feb-12 22:30N 60°05' E 027°21'611.7
2018-Feb-12 21:59N 60°08' E 027°31'612.0
2018-Feb-12 21:30N 60°11' E 027°41'510.2
2018-Feb-12 21:00N 60°11' E 027°52'611.4
2018-Feb-12 20:31N 60°10' E 028°03'612.8
2018-Feb-12 20:00N 60°08' E 028°15'612.2
2018-Feb-12 19:30N 60°05' E 028°25'611.8
2018-Feb-12 19:00N 60°03' E 028°37'613.1
2018-Feb-12 18:30N 59°57' E 028°35'4 8.1
2018-Feb-12 18:00N 59°53' E 028°31'612.9
2018-Feb-12 17:31N 59°48' E 028°25'5 9.4
2018-Feb-12 17:01N 59°43' E 028°25'3 5.2
2018-Feb-12 16:30N 59°41' E 028°23'0 0.3
2018-Feb-12 15:58N 59°41' E 028°23'0 0.1
2018-Feb-12 15:16N 59°41' E 028°23'0 0.0
2018-Feb-12 14:49N 59°41' E 028°23'0 0.0
2018-Feb-12 14:22N 59°41' E 028°23'0 0.0
2018-Feb-12 13:52N 59°41' E 028°23'0 0.0
2018-Feb-12 13:22N 59°41' E 028°23'0 0.0
2018-Feb-12 12:52N 59°41' E 028°23'0 0.0
2018-Feb-12 12:22N 59°41' E 028°23'0 0.0
2018-Feb-12 11:52N 59°41' E 028°23'0 0.0
2018-Feb-12 11:25N 59°41' E 028°23'0 0.0
2018-Feb-12 10:55N 59°41' E 028°23'0 0.0
2018-Feb-12 10:25N 59°41' E 028°23'0 0.0
2018-Feb-12 09:55N 59°41' E 028°23'0 0.0
2018-Feb-12 09:25N 59°41' E 028°23'0 0.0
2018-Feb-12 08:55N 59°41' E 028°23'0 0.0
2018-Feb-12 08:28N 59°41' E 028°23'0 0.0
2018-Feb-12 08:00N 59°41' E 028°23'0 0.0
2018-Feb-12 07:30N 59°41' E 028°23'0 0.0
2018-Feb-12 07:00N 59°41' E 028°23'0 0.0
2018-Feb-12 06:11N 59°41' E 028°23'0 0.0
2018-Feb-12 05:56N 59°41' E 028°23'0 0.0
2018-Feb-12 05:26N 59°41' E 028°23'0 0.0
2018-Feb-12 04:55N 59°41' E 028°23'0 0.0
2018-Feb-12 04:25N 59°41' E 028°23'0 0.0
2018-Feb-12 03:54N 59°41' E 028°23'0 0.0
2018-Feb-12 03:24N 59°41' E 028°23'0 0.0
2018-Feb-12 02:54N 59°41' E 028°23'0 0.0
2018-Feb-12 02:24N 59°41' E 028°23'0 0.0
2018-Feb-12 01:57N 59°41' E 028°23'0 0.0
2018-Feb-12 01:23N 59°41' E 028°23'0 0.0
2018-Feb-12 00:53N 59°41' E 028°23'0 0.0
2018-Feb-12 00:26N 59°41' E 028°23'0 0.0
2018-Feb-11 23:56N 59°41' E 028°23'0 0.0
2018-Feb-11 23:26N 59°41' E 028°23'0 0.0
2018-Feb-11 22:53N 59°41' E 028°23'0 0.0
2018-Feb-11 22:26N 59°41' E 028°23'0 0.0
2018-Feb-11 21:56N 59°41' E 028°23'0 0.0
2018-Feb-11 21:29N 59°41' E 028°23'0 0.0
2018-Feb-11 20:59N 59°41' E 028°23'0 0.0
2018-Feb-11 20:26N 59°41' E 028°23'0 0.0
2018-Feb-11 19:56N 59°41' E 028°23'0 0.0
2018-Feb-11 19:29N 59°41' E 028°23'0 0.0
2018-Feb-11 18:59N 59°41' E 028°23'0 0.0
2018-Feb-11 18:29N 59°41' E 028°23'0 0.0
2018-Feb-11 17:59N 59°41' E 028°23'0 0.0
2018-Feb-11 17:29N 59°41' E 028°23'0 0.0
2018-Feb-11 16:59N 59°41' E 028°23'0 0.0
2018-Feb-11 16:29N 59°41' E 028°23'0 0.0
2018-Feb-11 15:59N 59°41' E 028°23'0 0.0
2018-Feb-11 15:29N 59°41' E 028°23'0 0.0
2018-Feb-11 14:53N 59°41' E 028°23'0 0.0
2018-Feb-11 14:29N 59°41' E 028°23'0 0.0
2018-Feb-11 13:59N 59°41' E 028°23'0 0.0
2018-Feb-11 13:29N 59°41' E 028°23'0 0.0
2018-Feb-11 12:59N 59°41' E 028°23'0 0.0
2018-Feb-11 12:22N 59°41' E 028°23'0 0.0
2018-Feb-11 11:52N 59°41' E 028°23'0 0.0
2018-Feb-11 11:25N 59°41' E 028°23'0 0.0
2018-Feb-11 10:55N 59°41' E 028°23'0 0.0
2018-Feb-11 10:25N 59°41' E 028°23'0 0.0
2018-Feb-11 09:55N 59°41' E 028°23'0 0.0
2018-Feb-11 09:25N 59°41' E 028°23'0 0.0
2018-Feb-11 08:52N 59°41' E 028°23'0 0.0
2018-Feb-11 08:28N 59°41' E 028°23'0 0.0
2018-Feb-11 07:58N 59°41' E 028°23'0 0.0
2018-Feb-11 07:28N 59°41' E 028°23'0 0.0
2018-Feb-11 07:00N 59°41' E 028°23'0 0.0
2018-Feb-11 06:30N 59°41' E 028°23'0 0.0
2018-Feb-11 06:00N 59°41' E 028°23'0 0.0
2018-Feb-11 05:26N 59°41' E 028°23'0 0.0
2018-Feb-11 05:00N 59°41' E 028°23'1 1.3
2018-Feb-11 04:30N 59°41' E 028°24'2 4.1
2018-Feb-11 04:01N 59°43' E 028°24'4 7.3
2018-Feb-11 03:30N 59°46' E 028°24'0 0.6
2018-Feb-11 03:01N 59°46' E 028°24'0 0.1
2018-Feb-11 02:26N 59°46' E 028°24'0 0.0
2018-Feb-11 01:56N 59°46' E 028°24'0 0.0
2018-Feb-11 01:28N 59°46' E 028°24'0 0.0
2018-Feb-11 00:55N 59°46' E 028°24'0 0.0
2018-Feb-11 00:28N 59°46' E 028°24'0 0.0
2018-Feb-10 23:58N 59°46' E 028°24'0 0.0
2018-Feb-10 23:28N 59°46' E 028°24'0 0.0
2018-Feb-10 22:58N 59°46' E 028°24'0 0.0
2018-Feb-10 22:26N 59°46' E 028°24'0 0.0
2018-Feb-10 21:56N 59°46' E 028°24'0 0.0
2018-Feb-10 21:19N 59°46' E 028°24'0 0.0
2018-Feb-10 20:54N 59°46' E 028°24'0 0.0
2018-Feb-10 20:29N 59°46' E 028°24'0 0.0
2018-Feb-10 19:52N 59°46' E 028°24'0 0.0
2018-Feb-10 19:22N 59°46' E 028°24'0 0.0
2018-Feb-10 18:52N 59°46' E 028°24'0 0.0
2018-Feb-10 18:22N 59°46' E 028°24'0 0.0
2018-Feb-10 17:55N 59°46' E 028°24'0 0.0
2018-Feb-10 17:25N 59°46' E 028°24'0 0.0
2018-Feb-10 16:55N 59°46' E 028°24'0 0.0
2018-Feb-10 16:25N 59°46' E 028°24'0 0.0
2018-Feb-10 15:55N 59°46' E 028°24'0 0.0
2018-Feb-10 15:22N 59°46' E 028°24'0 0.0
2018-Feb-10 14:58N 59°46' E 028°24'0 0.0
2018-Feb-10 14:25N 59°46' E 028°24'0 0.0
2018-Feb-10 13:59N 59°46' E 028°24'0 0.0
2018-Feb-10 13:29N 59°46' E 028°24'0 0.0
2018-Feb-10 12:53N 59°47' E 028°24'0 0.3
2018-Feb-10 12:29N 59°47' E 028°24'2 4.9
2018-Feb-10 12:01N 59°49' E 028°25'612.6
2018-Feb-10 11:30N 59°54' E 028°32'3 6.6
2018-Feb-10 11:00N 59°56' E 028°37'2 2.9
2018-Feb-10 10:29N 59°55' E 028°39'0 0.2
2018-Feb-10 09:59N 59°55' E 028°38'0 0.0
2018-Feb-10 09:29N 59°55' E 028°38'0 0.0
2018-Feb-10 08:59N 59°55' E 028°38'0 0.0
2018-Feb-10 08:29N 59°55' E 028°38'0 0.0
2018-Feb-10 07:59N 59°55' E 028°38'0 0.0
2018-Feb-10 07:26N 59°55' E 028°38'0 0.1
2018-Feb-10 06:58N 59°55' E 028°39'0 0.0
2018-Feb-10 06:28N 59°55' E 028°39'0 0.0
2018-Feb-10 05:56N 59°55' E 028°39'0 0.0
2018-Feb-10 05:22N 59°55' E 028°39'0 0.0
2018-Feb-10 04:54N 59°55' E 028°39'0 0.0
2018-Feb-10 04:27N 59°55' E 028°39'0 0.0
2018-Feb-10 03:57N 59°55' E 028°39'0 0.1
2018-Feb-10 03:27N 59°55' E 028°39'0 0.1
2018-Feb-10 03:00N 59°55' E 028°39'0 0.0
2018-Feb-10 02:30N 59°55' E 028°39'0 0.0
2018-Feb-10 02:00N 59°55' E 028°39'0 0.0
2018-Feb-10 01:30N 59°55' E 028°39'0 0.1
2018-Feb-10 01:00N 59°55' E 028°39'0 0.0
2018-Feb-10 00:30N 59°55' E 028°39'0 0.0
2018-Feb-09 23:44N 59°55' E 028°39'0 0.0
2018-Feb-09 23:28N 59°55' E 028°39'0 0.1
2018-Feb-09 22:57N 59°55' E 028°39'0 0.1
2018-Feb-09 22:41N 59°55' E 028°39'0 0.0
2018-Feb-09 18:30N 59°55' E 028°39'5 1.1
2018-Feb-09 13:30N 60°00' E 028°36'510.3
2018-Feb-09 13:00N 60°03' E 028°27'1711.5
2018-Feb-09 11:30N 60°10' E 027°55'611.4
2018-Feb-09 11:00N 60°10' E 027°43'612.4
2018-Feb-09 10:30N 60°07' E 027°33'612.8
2018-Feb-09 10:00N 60°03' E 027°22'1212.3
2018-Feb-09 09:00N 59°58' E 026°60'612.7
2018-Feb-09 08:30N 59°59' E 026°47'1313.0
2018-Feb-09 07:30N 59°57' E 026°21'4512.9
2018-Feb-09 04:00N 59°47' E 024°53'1312.5
2018-Feb-09 03:00N 59°44' E 024°29'1912.6
2018-Feb-09 01:30N 59°38' E 023°53'612.9
2018-Feb-09 01:00N 59°36' E 023°41'29812.7
2018-Feb-08 01:30N 56°09' E 016°59'613.0
2018-Feb-08 01:00N 56°05' E 016°49'713.1
2018-Feb-08 00:30N 56°01' E 016°40'  

Dump ship's entire track history